Time;durP1;ratioP1;P1;durP2;ratioP2;P2;SDS_P1;SDS_P2;PMS_P1;PMS_P2;Temp;Humidity;BMP_temperature;BMP_pressure;BME280_temperature;BME280_humidity;BME280_pressure;Samples;Min_cycle;Max_cycle;Signal;HPM_P1;HPM_P2
2021/10/17 00:16:52;;;;;;;10.57;6.93;;;;;;;7.66;100.00;100909.50;21099969;27;20362;-69
2021/10/17 00:36:54;;;;;;;9.23;6.30;;;;;;;7.63;100.00;100909.63;21074554;27;21276;-72
2021/10/17 00:46:58;;;;;;;9.47;5.70;;;;;;;7.66;100.00;100904.19;21092886;28;20227;-68
2021/10/17 00:57:03;;;;;;;10.57;6.70;;;;;;;7.62;100.00;100899.91;21126176;28;20227;-68
2021/10/17 01:07:11;;;;;;;8.70;6.27;;;;;;;7.59;100.00;100888.53;21117579;28;21168;-70
2021/10/17 01:17:17;;;;;;;10.50;6.90;;;;;;;7.55;100.00;100884.25;21117988;28;20235;-72
2021/10/17 01:27:23;;;;;;;11.43;6.63;;;;;;;7.59;100.00;100882.34;21122816;28;20861;-71
2021/10/17 02:07:27;;;;;;;14.43;9.43;;;;;;;7.65;100.00;100854.66;21058769;27;20568;-70
2021/10/17 02:17:31;;;;;;;14.17;9.03;;;;;;;7.66;100.00;100861.69;21026666;27;20457;-70
2021/10/17 02:37:37;;;;;;;11.17;8.57;;;;;;;7.55;100.00;100848.88;21037184;27;20592;-72
2021/10/17 02:47:41;;;;;;;14.70;9.67;;;;;;;7.55;100.00;100848.88;21039306;28;20270;-72
2021/10/17 02:57:46;;;;;;;18.03;10.30;;;;;;;7.59;100.00;100855.78;21037726;28;20246;-73
2021/10/17 03:47:33;;;;;;;9.80;7.23;;;;;;;7.58;100.00;100854.94;21035563;27;20599;-73
2021/10/17 03:57:39;;;;;;;11.33;7.73;;;;;;;7.66;100.00;100851.06;21045523;27;20272;-72
2021/10/17 04:07:45;;;;;;;10.70;7.10;;;;;;;7.69;100.00;100845.63;21031256;27;20229;-70
2021/10/17 04:27:48;;;;;;;9.30;5.97;;;;;;;7.79;100.00;100833.66;21202753;27;20571;-72
2021/10/17 04:47:49;;;;;;;9.37;5.57;;;;;;;7.81;100.00;100850.41;21050016;27;20568;-73
2021/10/17 04:57:52;;;;;;;8.70;5.70;;;;;;;7.83;100.00;100846.75;21024795;28;20228;-74
2021/10/17 05:08:00;;;;;;;10.77;5.77;;;;;;;7.84;100.00;100844.94;21046583;28;20219;-73
2021/10/17 05:18:10;;;;;;;9.43;6.30;;;;;;;7.87;100.00;100848.31;21023291;28;20274;-71
2021/10/17 05:28:19;;;;;;;8.07;6.10;;;;;;;7.95;100.00;100864.81;21043830;28;20698;-72
2021/10/17 05:48:21;;;;;;;6.53;5.43;;;;;;;8.20;100.00;100880.50;21134240;27;20582;-73
2021/10/17 06:08:23;;;;;;;10.10;6.13;;;;;;;8.47;100.00;100874.84;21009171;27;20574;-73
2021/10/17 06:18:28;;;;;;;8.53;5.70;;;;;;;8.71;100.00;100884.34;21043881;27;20843;-72
2021/10/17 06:28:34;;;;;;;7.43;5.40;;;;;;;9.02;100.00;100881.94;21025692;27;20859;-70
2021/10/17 06:38:37;;;;;;;8.93;5.77;;;;;;;9.26;100.00;100879.00;21045834;27;20718;-74
2021/10/17 06:48:43;;;;;;;8.10;5.60;;;;;;;9.54;100.00;100878.50;21022442;27;20229;-74
2021/10/17 06:58:47;;;;;;;8.60;5.63;;;;;;;9.75;100.00;100888.91;21043473;27;20253;-73
2021/10/17 07:08:52;;;;;;;8.73;5.80;;;;;;;9.89;100.00;100895.31;21023252;27;20230;-71
2021/10/17 07:19:04;;;;;;;8.90;6.13;;;;;;;9.94;100.00;100894.13;20905550;28;20234;-71
2021/10/17 07:29:09;;;;;;;9.30;5.37;;;;;;;10.06;100.00;100908.59;20955835;28;20855;-66
2021/10/17 07:49:18;;;;;;;7.00;4.60;;;;;;;10.54;100.00;100909.63;21145659;27;20532;-71
2021/10/17 07:59:22;;;;;;;8.80;4.90;;;;;;;10.56;100.00;100908.59;21117430;28;20287;-70
2021/10/17 08:09:28;;;;;;;8.33;5.50;;;;;;;10.61;100.00;100921.69;21116999;27;20307;-67
2021/10/17 08:19:31;;;;;;;7.93;5.63;;;;;;;10.57;100.00;100921.00;21191450;27;20311;-66
2021/10/17 08:29:37;;;;;;;9.83;6.23;;;;;;;10.54;100.00;100921.16;21109210;27;20237;-71
2021/10/17 08:39:41;;;;;;;8.37;6.53;;;;;;;10.52;100.00;100916.84;21130916;27;20229;-69
2021/10/17 08:49:47;;;;;;;10.70;6.43;;;;;;;10.43;100.00;100927.09;21124946;28;20269;-69
2021/10/17 08:59:53;;;;;;;8.33;5.90;;;;;;;10.52;100.00;100927.53;21053394;28;20232;-69
2021/10/17 09:20:00;;;;;;;9.67;6.90;;;;;;;11.98;100.00;100927.13;20869532;28;20664;-69
2021/10/17 09:30:04;;;;;;;7.77;6.13;;;;;;;12.26;100.00;100924.50;20866188;28;20785;-69
2021/10/17 09:40:18;;;;;;;7.77;6.10;;;;;;;12.20;100.00;100922.19;20880964;28;20220;-68
2021/10/17 09:50:41;;;;;;;7.30;5.30;;;;;;;12.23;100.00;100924.69;20858651;28;20593;-68
2021/10/17 10:00:46;;;;;;;8.60;5.70;;;;;;;12.22;100.00;100925.63;20875789;28;20568;-69
2021/10/17 10:10:51;;;;;;;7.97;5.57;;;;;;;12.14;100.00;100930.59;20853545;28;20229;-69
2021/10/17 10:30:53;;;;;;;6.90;5.37;;;;;;;12.14;100.00;100925.25;21112744;27;20602;-68
2021/10/17 10:41:15;;;;;;;9.93;6.33;;;;;;;12.41;98.03;100923.56;21146523;27;20222;-75
2021/10/17 10:51:36;;;;;;;10.53;6.00;;;;;;;12.23;100.00;100913.97;21197651;27;20228;-72
2021/10/17 11:01:58;;;;;;;5.37;4.80;;;;;;;12.66;98.42;100908.63;21118331;27;20329;-60
2021/10/17 11:12:04;;;;;;;7.77;5.90;;;;;;;12.81;100.00;100900.47;21033423;28;20214;-70
2021/10/17 11:22:07;;;;;;;6.63;5.57;;;;;;;12.69;100.00;100885.19;21031600;28;20229;-73
2021/10/17 11:32:17;;;;;;;7.33;5.33;;;;;;;12.90;100.00;100878.47;21039202;28;20278;-60
2021/10/17 11:52:18;;;;;;;5.63;4.73;;;;;;;13.63;98.09;100867.38;21014021;27;20577;-70
2021/10/17 12:02:31;;;;;;;5.17;4.63;;;;;;;13.92;93.53;100868.91;21017536;28;20255;-64
2021/10/17 12:12:39;;;;;;;5.87;4.10;;;;;;;13.83;93.09;100853.44;21045421;28;20236;-68
2021/10/17 12:22:43;;;;;;;6.97;4.97;;;;;;;13.21;96.30;100842.50;21020273;28;20269;-65
2021/10/17 12:32:56;;;;;;;5.90;4.40;;;;;;;12.98;94.60;100843.13;21042733;28;20241;-61
2021/10/17 12:43:01;;;;;;;4.60;3.60;;;;;;;12.93;100.00;100839.88;21008204;27;20259;-60
2021/10/17 12:53:07;;;;;;;4.73;4.23;;;;;;;13.05;98.91;100839.06;21032017;28;20222;-60
2021/10/17 13:03:17;;;;;;;6.30;5.27;;;;;;;13.19;98.21;100822.97;20980057;28;20254;-62
2021/10/17 13:13:23;;;;;;;5.83;5.20;;;;;;;13.43;98.25;100823.13;20970365;28;20234;-64
2021/10/17 13:23:27;;;;;;;10.03;6.80;;;;;;;13.22;98.73;100814.72;20982386;28;20309;-59
2021/10/17 13:33:32;;;;;;;7.40;5.93;;;;;;;12.81;98.44;100808.53;20960274;28;20235;-65
2021/10/17 13:43:36;;;;;;;7.93;5.53;;;;;;;12.62;100.00;100804.41;20983766;28;20301;-63
2021/10/17 13:53:41;;;;;;;10.57;6.47;;;;;;;12.37;100.00;100800.72;20951898;28;20243;-68
2021/10/17 14:03:44;;;;;;;7.10;5.60;;;;;;;12.11;100.00;100791.66;20896761;28;20901;-64
2021/10/17 14:13:49;;;;;;;9.90;6.60;;;;;;;11.87;100.00;100789.56;20878479;28;20234;-67
2021/10/17 14:33:52;;;;;;;9.17;7.50;;;;;;;11.44;100.00;100782.44;21036977;27;20577;-63
2021/10/17 14:43:56;;;;;;;6.83;5.63;;;;;;;11.33;100.00;100792.94;21035904;28;20233;-69
2021/10/17 14:54:02;;;;;;;16.03;10.43;;;;;;;11.10;100.00;100792.47;21037884;28;20717;-72
2021/10/17 15:04:06;;;;;;;10.07;7.23;;;;;;;10.96;100.00;100795.09;21023808;28;20226;-72
2021/10/17 15:24:09;;;;;;;10.67;7.23;;;;;;;10.52;100.00;100799.44;20956122;27;20604;-72
2021/10/17 15:34:14;;;;;;;9.57;7.37;;;;;;;10.27;100.00;100800.78;20962144;28;20277;-73
2021/10/17 15:44:19;;;;;;;14.60;10.30;;;;;;;10.01;100.00;100814.69;20941456;28;20244;-72
2021/10/17 16:04:21;;;;;;;15.23;10.37;;;;;;;9.73;100.00;100810.81;21187302;27;20663;-68
2021/10/17 16:14:25;;;;;;;14.10;10.80;;;;;;;9.63;100.00;100817.59;21207447;27;20221;-66
2021/10/17 16:24:31;;;;;;;11.47;9.53;;;;;;;9.53;100.00;100808.34;21207723;27;20747;-68
2021/10/17 16:34:35;;;;;;;14.77;10.13;;;;;;;9.43;100.00;100823.06;21198434;27;20315;-72
2021/10/17 16:44:40;;;;;;;11.30;8.83;;;;;;;9.31;100.00;100815.69;21212634;27;20682;-74
2021/10/17 16:54:45;;;;;;;11.20;9.30;;;;;;;9.19;100.00;100819.84;21170799;27;20322;-63
2021/10/17 17:04:51;;;;;;;16.63;12.20;;;;;;;9.13;100.00;100820.19;21210873;27;20235;-64
2021/10/17 17:14:59;;;;;;;14.57;11.90;;;;;;;9.10;100.00;100822.13;21135791;27;20781;-65
2021/10/17 17:25:08;;;;;;;15.77;12.50;;;;;;;9.10;100.00;100816.81;21151758;28;20236;-63
2021/10/17 17:35:13;;;;;;;16.37;12.07;;;;;;;9.10;100.00;100804.34;21131662;28;20229;-66
2021/10/17 17:45:19;;;;;;;13.50;11.17;;;;;;;9.08;100.00;100800.91;21147301;28;20258;-69
2021/10/17 17:55:25;;;;;;;16.07;11.93;;;;;;;9.11;100.00;100806.06;21139202;28;20271;-63
2021/10/17 18:05:31;;;;;;;13.53;12.00;;;;;;;9.13;100.00;100798.00;21139077;28;20522;-62
2021/10/17 18:15:39;;;;;;;14.50;11.27;;;;;;;9.16;100.00;100800.53;21146466;28;20236;-69
2021/10/17 18:25:44;;;;;;;17.30;12.37;;;;;;;9.14;100.00;100794.41;21128641;28;20240;-63
2021/10/17 18:35:51;;;;;;;17.90;12.33;;;;;;;9.11;100.00;100805.22;21147852;28;20302;-64
2021/10/17 18:45:56;;;;;;;14.13;11.83;;;;;;;9.06;100.00;100791.28;21125439;28;20308;-64
2021/10/17 18:56:00;;;;;;;18.47;14.07;;;;;;;8.98;100.00;100795.19;21145670;28;20320;-61
2021/10/17 19:06:06;;;;;;;14.00;12.10;;;;;;;8.91;100.00;100799.09;21088117;28;20658;-66
2021/10/17 19:16:10;;;;;;;13.73;10.70;;;;;;;8.85;100.00;100803.84;21144288;28;20232;-61
2021/10/17 19:26:16;;;;;;;12.17;10.33;;;;;;;8.34;100.00;100809.88;21127740;28;20266;-68
2021/10/17 19:46:21;;;;;;;13.90;10.20;;;;;;;7.63;100.00;100816.66;20967602;27;20566;-70
2021/10/17 20:16:22;;;;;;;14.77;11.50;;;;;;;6.68;100.00;100822.47;21014232;27;20584;-69
2021/10/17 20:26:28;;;;;;;21.43;14.57;;;;;;;6.49;100.00;100825.88;21046662;27;20219;-67
2021/10/17 22:06:08;;;;;;;17.47;12.97;;;;;;;7.18;100.00;100804.44;21083887;27;20357;-62
2021/10/17 22:16:11;;;;;;;17.63;13.87;;;;;;;7.35;100.00;100809.91;21058770;28;20227;-65
2021/10/17 23:06:03;;;;;;;18.30;13.33;;;;;;;5.96;100.00;100822.59;21059552;27;20583;-66
